createdAt,value
2023-02-22T00:04:44.277Z,9.15
2023-02-22T00:09:47.129Z,9.38
2023-02-22T00:14:51.498Z,8.88
2023-02-22T00:19:57.255Z,8.63
2023-02-22T00:25:12.935Z,9.02
2023-02-22T00:30:45.342Z,9.05
2023-02-22T00:35:48.313Z,8.07
2023-02-22T00:40:51.185Z,8.18
2023-02-22T00:45:54.172Z,8.15
2023-02-22T00:50:57.026Z,7.95
2023-02-22T00:56:11.660Z,8.52
2023-02-22T01:01:14.853Z,7.90
2023-02-22T01:06:40.828Z,7.95
2023-02-22T01:11:43.737Z,8.57
2023-02-22T01:16:46.660Z,8.15
2023-02-22T01:21:50.945Z,8.65
2023-02-22T01:26:53.897Z,9.27
2023-02-22T01:33:12.877Z,8.68
2023-02-22T01:38:15.475Z,7.90
2023-02-22T01:45:08.946Z,8.32
2023-02-22T01:50:12.259Z,7.60
2023-02-22T01:55:15.895Z,8.05
2023-02-22T02:00:21.531Z,8.32
2023-02-22T02:06:15.839Z,9.05
2023-02-22T02:18:16.060Z,9.63
2023-02-22T02:23:41.213Z,10.02
2023-02-22T02:29:40.301Z,9.63
2023-02-22T02:36:09.308Z,9.25
2023-02-22T02:42:11.220Z,9.40
2023-02-22T02:48:11.524Z,8.35
2023-02-22T03:06:13.250Z,9.73
2023-02-22T03:18:22.099Z,9.38
2023-02-22T03:24:13.800Z,9.18
2023-02-22T03:30:21.677Z,8.98
2023-02-22T03:37:11.198Z,9.02
2023-02-22T03:48:54.338Z,8.88
2023-02-22T03:54:16.525Z,9.13
2023-02-22T04:00:14.550Z,8.35
2023-02-22T04:05:20.025Z,9.23
2023-02-22T04:11:13.135Z,10.05
2023-02-22T04:27:11.342Z,10.02
2023-02-22T04:32:14.728Z,9.93
2023-02-22T04:37:17.735Z,10.32
2023-02-22T04:42:20.319Z,10.98
2023-02-22T04:47:24.293Z,8.95
2023-02-22T04:53:11.250Z,11.82
2023-02-22T04:58:15.385Z,10.90
2023-02-22T05:03:19.565Z,11.65
2023-02-22T05:08:22.879Z,14.40
2023-02-22T05:13:42.384Z,10.60
2023-02-22T05:24:41.280Z,9.98
2023-02-22T05:35:13.345Z,10.63
2023-02-22T05:40:20.996Z,10.38
2023-02-22T05:45:43.613Z,11.27
2023-02-22T05:51:12.382Z,11.20
2023-02-22T05:56:20.810Z,10.57
2023-02-22T06:01:25.350Z,10.13
2023-02-22T06:07:12.635Z,9.27
2023-02-22T06:17:20.596Z,9.32
2023-02-22T06:22:23.395Z,9.38
2023-02-22T06:27:26.072Z,8.23
2023-02-22T06:33:14.926Z,9.25
2023-02-22T06:38:31.876Z,9.15
2023-02-22T06:43:43.874Z,8.15
2023-02-22T06:48:54.130Z,8.50
2023-02-22T06:54:11.760Z,9.30
2023-02-22T06:59:14.324Z,8.82
2023-02-22T07:04:17.210Z,8.93
2023-02-22T07:09:20.032Z,8.60
2023-02-22T07:14:23.310Z,8.85
2023-02-22T07:19:25.885Z,8.80
2023-02-22T07:25:11.562Z,9.15
2023-02-22T07:30:25.802Z,8.90
2023-02-22T07:36:12.351Z,9.18
2023-02-22T07:41:15.294Z,9.43
2023-02-22T07:46:19.346Z,7.97
2023-02-22T07:51:22.003Z,12.60
2023-02-22T07:56:24.539Z,8.88
2023-02-22T08:01:41.614Z,8.57
2023-02-22T08:06:48.166Z,9.82
2023-02-22T08:12:16.546Z,9.02
2023-02-22T08:17:19.142Z,10.25
2023-02-22T08:22:22.121Z,11.18
2023-02-22T08:27:27.205Z,11.85
2023-02-22T08:32:33.202Z,10.48
2023-02-22T08:37:44.314Z,11.15
2023-02-22T08:42:47.244Z,10.88
2023-02-22T08:47:50.217Z,10.32
2023-02-22T08:53:09.698Z,9.95
2023-02-22T08:58:12.823Z,8.45
2023-02-22T09:03:16.276Z,9.02
2023-02-22T09:08:19.093Z,8.52
2023-02-22T09:13:21.694Z,8.88
2023-02-22T09:18:26.873Z,10.23
2023-02-22T09:23:40.413Z,8.77
2023-02-22T09:28:43.088Z,7.60
2023-02-22T09:33:47.446Z,8.90
2023-02-22T09:38:50.441Z,9.35
2023-02-22T09:44:24.244Z,10.30
2023-02-22T09:49:47.418Z,9.02
2023-02-22T09:55:27.698Z,7.57
2023-02-22T10:00:43.952Z,7.70
2023-02-22T10:06:43.976Z,9.02
2023-02-22T10:12:43.292Z,9.25
2023-02-22T10:18:48.789Z,9.27
2023-02-22T10:24:47.728Z,9.25
2023-02-22T10:30:26.298Z,9.20
2023-02-22T10:35:46.759Z,13.25
2023-02-22T10:41:10.589Z,12.20
2023-02-22T10:46:25.552Z,10.23
2023-02-22T10:51:32.996Z,10.35
2023-02-22T10:56:52.447Z,10.57
2023-02-22T11:02:01.935Z,9.45
2023-02-22T11:07:20.411Z,8.07
2023-02-22T11:12:41.400Z,9.77
2023-02-22T11:17:51.777Z,11.07
2023-02-22T11:23:05.469Z,9.70
2023-02-22T11:28:33.029Z,9.27
2023-02-22T11:33:40.787Z,10.88
2023-02-22T11:38:59.346Z,7.72
2023-02-22T11:44:35.438Z,8.98
2023-02-22T11:49:45.801Z,11.95
2023-02-22T11:55:46.794Z,9.32
2023-02-22T12:01:23.286Z,12.07
2023-02-22T12:06:59.465Z,8.15
2023-02-22T12:12:44.104Z,8.10
2023-02-22T12:18:42.923Z,8.82
2023-02-22T12:24:10.815Z,21.33
2023-02-22T12:29:43.777Z,16.45
2023-02-22T12:35:02.663Z,9.60
2023-02-22T12:40:54.444Z,7.95
2023-02-22T12:46:20.547Z,9.65
2023-02-22T12:51:49.863Z,9.27
2023-02-22T12:57:13.759Z,8.63
2023-02-22T13:02:44.784Z,10.23
2023-02-22T13:08:00.130Z,9.60
2023-02-22T13:13:55.118Z,9.32
2023-02-22T13:19:14.141Z,9.48
2023-02-22T13:24:58.528Z,8.82
2023-02-22T13:30:41.960Z,9.27
2023-02-22T13:36:18.307Z,9.40
2023-02-22T13:41:56.366Z,10.27
2023-02-22T13:47:24.853Z,10.55
2023-02-22T13:52:44.887Z,9.75
2023-02-22T13:58:15.485Z,10.90
2023-02-22T14:04:17.945Z,9.43
2023-02-22T14:10:56.251Z,10.57
2023-02-22T14:16:35.928Z,9.77
2023-02-22T14:23:11.991Z,11.70
2023-02-22T14:29:13.596Z,10.50
2023-02-22T14:34:42.340Z,25.63
2023-02-22T14:40:02.230Z,10.60
2023-02-22T14:45:55.934Z,10.15
2023-02-22T14:51:22.342Z,9.70
2023-02-22T15:02:28.386Z,9.77
2023-02-22T15:07:42.055Z,11.13
2023-02-22T15:13:13.002Z,10.90
2023-02-22T15:18:46.335Z,14.88
2023-02-22T15:24:09.033Z,12.90
2023-02-22T15:29:53.921Z,16.05
2023-02-22T15:35:19.609Z,16.13
2023-02-22T15:40:22.713Z,18.35
2023-02-22T15:45:42.902Z,18.40
2023-02-22T15:51:13.952Z,21.23
2023-02-22T15:56:23.982Z,17.92
2023-02-22T16:01:27.276Z,21.13
2023-02-22T16:06:44.631Z,22.23
2023-02-22T16:12:13.898Z,25.25
2023-02-22T16:17:33.882Z,29.63
2023-02-22T16:22:59.434Z,32.13
2023-02-22T16:28:23.617Z,31.40
2023-02-22T16:33:30.149Z,30.27
2023-02-22T16:38:39.007Z,32.60
2023-02-22T16:43:47.153Z,29.02
2023-02-22T16:48:50.002Z,24.92
2023-02-22T16:53:56.334Z,27.80
2023-02-22T16:59:07.272Z,39.15
2023-02-22T17:04:24.810Z,32.83
2023-02-22T17:09:27.616Z,27.77
2023-02-22T17:14:34.656Z,26.93
2023-02-22T17:19:37.747Z,35.03
2023-02-22T17:24:40.369Z,34.30
2023-02-22T17:29:45.074Z,51.20
2023-02-22T17:34:47.673Z,39.53
2023-02-22T17:39:50.262Z,39.07
2023-02-22T17:44:52.895Z,49.67
2023-02-22T17:49:57.977Z,51.90
2023-02-22T17:55:00.777Z,55.42
2023-02-22T18:00:12.504Z,66.80
2023-02-22T18:05:19.952Z,79.13
2023-02-22T18:10:22.525Z,89.40
2023-02-22T18:15:28.494Z,87.37
2023-02-22T18:20:31.365Z,96.93
2023-02-22T18:25:35.984Z,90.30
2023-02-22T18:30:41.395Z,105.13
2023-02-22T18:35:52.301Z,83.23
2023-02-22T18:41:06.709Z,97.87
2023-02-22T18:46:18.949Z,101.72
2023-02-22T18:51:23.009Z,111.60
2023-02-22T18:56:30.251Z,116.95
2023-02-22T19:01:38.736Z,123.70
2023-02-22T19:06:45.383Z,112.37
2023-02-22T19:11:50.122Z,111.07
2023-02-22T19:16:53.427Z,113.47
2023-02-22T19:21:58.719Z,110.40
2023-02-22T19:27:27.091Z,110.33
2023-02-22T19:32:47.325Z,110.00
2023-02-22T19:38:14.700Z,112.00
2023-02-22T19:43:24.642Z,91.63
2023-02-22T19:48:36.655Z,89.30
2023-02-22T19:53:45.829Z,78.30
2023-02-22T19:58:51.099Z,75.23
2023-02-22T20:04:09.770Z,71.20
2023-02-22T20:09:18.175Z,66.50
2023-02-22T20:14:28.483Z,68.83
2023-02-22T20:19:36.577Z,66.07
2023-02-22T20:24:44.512Z,66.77
2023-02-22T20:29:47.054Z,63.27
2023-02-22T20:34:50.218Z,65.10
2023-02-22T20:39:52.893Z,64.83
2023-02-22T20:44:55.455Z,65.47
2023-02-22T20:49:58.155Z,62.87
2023-02-22T20:55:14.942Z,57.33
2023-02-22T21:00:18.334Z,52.23
2023-02-22T21:05:21.902Z,53.40
2023-02-22T21:10:24.835Z,50.27
2023-02-22T21:15:27.430Z,57.77
2023-02-22T21:20:30.816Z,51.97
2023-02-22T21:25:36.420Z,41.90
2023-02-22T21:30:39.388Z,47.83
2023-02-22T21:35:43.526Z,46.10
2023-02-22T21:40:48.876Z,46.20
2023-02-22T21:45:51.860Z,42.30
2023-02-22T21:50:54.514Z,41.45
2023-02-22T21:56:14.015Z,37.42
2023-02-22T22:01:17.843Z,35.63
2023-02-22T22:06:21.083Z,34.53
2023-02-22T22:11:30.766Z,33.00
2023-02-22T22:16:36.457Z,32.35
2023-02-22T22:21:53.342Z,27.83
2023-02-22T22:26:56.291Z,29.65
2023-02-22T22:31:59.089Z,28.23
2023-02-22T22:37:03.472Z,24.93
2023-02-22T22:42:06.460Z,21.08
2023-02-22T22:47:19.525Z,17.13
2023-02-22T22:52:27.306Z,14.50
2023-02-22T22:57:48.813Z,13.45
2023-02-22T23:02:51.581Z,12.48
2023-02-22T23:07:56.391Z,8.88
2023-02-22T23:12:59.059Z,7.68
2023-02-22T23:18:03.886Z,7.55
2023-02-22T23:23:14.787Z,6.95
2023-02-22T23:28:19.102Z,7.55
2023-02-22T23:33:21.614Z,6.78
2023-02-22T23:38:30.177Z,5.82
2023-02-22T23:43:55.782Z,6.22
2023-02-22T23:49:01.794Z,6.72
2023-02-22T23:54:09.838Z,5.90
2023-02-22T23:59:20.412Z,6.28
